sensor_id;sensor_type;location;lat;lon;timestamp;P1;durP1;ratioP1;P2;durP2;ratioP2
2998;SDS011;1509;51.964;7.628;2023-06-14T00:00:06;5.90;;;3.73;;
2998;SDS011;1509;51.964;7.628;2023-06-14T00:02:32;4.57;;;3.60;;
2998;SDS011;1509;51.964;7.628;2023-06-14T00:04:58;4.90;;;3.57;;
2998;SDS011;1509;51.964;7.628;2023-06-14T00:07:33;5.80;;;3.60;;
2998;SDS011;1509;51.964;7.628;2023-06-14T00:10:03;5.20;;;3.43;;
2998;SDS011;1509;51.964;7.628;2023-06-14T00:12:30;5.70;;;3.93;;
2998;SDS011;1509;51.964;7.628;2023-06-14T00:14:56;4.70;;;3.83;;
2998;SDS011;1509;51.964;7.628;2023-06-14T00:17:22;6.50;;;3.53;;
2998;SDS011;1509;51.964;7.628;2023-06-14T00:19:47;6.23;;;3.37;;
2998;SDS011;1509;51.964;7.628;2023-06-14T00:22:13;4.60;;;3.50;;
2998;SDS011;1509;51.964;7.628;2023-06-14T00:24:39;4.60;;;3.17;;
2998;SDS011;1509;51.964;7.628;2023-06-14T00:27:04;5.60;;;3.50;;
2998;SDS011;1509;51.964;7.628;2023-06-14T00:29:30;7.37;;;3.90;;
2998;SDS011;1509;51.964;7.628;2023-06-14T00:31:56;5.53;;;3.00;;
2998;SDS011;1509;51.964;7.628;2023-06-14T00:34:21;5.37;;;3.30;;
2998;SDS011;1509;51.964;7.628;2023-06-14T00:36:47;4.73;;;3.10;;
2998;SDS011;1509;51.964;7.628;2023-06-14T00:39:12;6.27;;;3.80;;
2998;SDS011;1509;51.964;7.628;2023-06-14T00:41:38;6.10;;;3.50;;
2998;SDS011;1509;51.964;7.628;2023-06-14T00:44:04;5.50;;;3.13;;
2998;SDS011;1509;51.964;7.628;2023-06-14T00:46:30;4.30;;;3.40;;
2998;SDS011;1509;51.964;7.628;2023-06-14T00:48:56;5.40;;;3.10;;
2998;SDS011;1509;51.964;7.628;2023-06-14T00:51:25;6.00;;;3.30;;
2998;SDS011;1509;51.964;7.628;2023-06-14T00:53:51;7.17;;;3.60;;
2998;SDS011;1509;51.964;7.628;2023-06-14T00:56:17;4.83;;;3.43;;
2998;SDS011;1509;51.964;7.628;2023-06-14T00:58:45;4.00;;;3.20;;
2998;SDS011;1509;51.964;7.628;2023-06-14T01:01:11;4.77;;;3.60;;
2998;SDS011;1509;51.964;7.628;2023-06-14T01:03:36;4.70;;;3.10;;
2998;SDS011;1509;51.964;7.628;2023-06-14T01:06:15;4.30;;;3.23;;
2998;SDS011;1509;51.964;7.628;2023-06-14T01:08:55;6.43;;;3.60;;
2998;SDS011;1509;51.964;7.628;2023-06-14T01:11:24;7.00;;;3.67;;
2998;SDS011;1509;51.964;7.628;2023-06-14T01:13:56;5.80;;;3.20;;
2998;SDS011;1509;51.964;7.628;2023-06-14T01:16:23;4.73;;;3.30;;
2998;SDS011;1509;51.964;7.628;2023-06-14T01:18:49;4.97;;;3.20;;
2998;SDS011;1509;51.964;7.628;2023-06-14T01:21:23;8.60;;;3.47;;
2998;SDS011;1509;51.964;7.628;2023-06-14T01:23:50;6.43;;;2.90;;
2998;SDS011;1509;51.964;7.628;2023-06-14T01:26:20;3.60;;;3.00;;
2998;SDS011;1509;51.964;7.628;2023-06-14T01:28:47;5.07;;;3.50;;
2998;SDS011;1509;51.964;7.628;2023-06-14T01:31:16;4.73;;;3.57;;
2998;SDS011;1509;51.964;7.628;2023-06-14T01:33:44;7.93;;;2.90;;
2998;SDS011;1509;51.964;7.628;2023-06-14T01:36:10;4.07;;;3.00;;
2998;SDS011;1509;51.964;7.628;2023-06-14T01:38:37;7.20;;;3.43;;
2998;SDS011;1509;51.964;7.628;2023-06-14T01:41:03;6.87;;;3.53;;
2998;SDS011;1509;51.964;7.628;2023-06-14T01:43:30;5.00;;;3.30;;
2998;SDS011;1509;51.964;7.628;2023-06-14T01:45:58;6.90;;;3.40;;
2998;SDS011;1509;51.964;7.628;2023-06-14T01:48:26;8.83;;;3.33;;
2998;SDS011;1509;51.964;7.628;2023-06-14T01:50:52;7.30;;;3.20;;
2998;SDS011;1509;51.964;7.628;2023-06-14T01:53:18;3.70;;;3.03;;
2998;SDS011;1509;51.964;7.628;2023-06-14T01:55:43;4.03;;;3.60;;
2998;SDS011;1509;51.964;7.628;2023-06-14T01:58:09;6.77;;;3.43;;
2998;SDS011;1509;51.964;7.628;2023-06-14T02:00:35;5.57;;;3.60;;
2998;SDS011;1509;51.964;7.628;2023-06-14T02:03:01;4.83;;;3.47;;
2998;SDS011;1509;51.964;7.628;2023-06-14T02:05:29;4.73;;;3.20;;
2998;SDS011;1509;51.964;7.628;2023-06-14T02:07:55;6.87;;;2.93;;
2998;SDS011;1509;51.964;7.628;2023-06-14T02:10:21;3.57;;;2.93;;
2998;SDS011;1509;51.964;7.628;2023-06-14T02:12:46;4.43;;;3.20;;
2998;SDS011;1509;51.964;7.628;2023-06-14T02:15:12;10.00;;;4.00;;
2998;SDS011;1509;51.964;7.628;2023-06-14T02:17:42;6.97;;;2.87;;
2998;SDS011;1509;51.964;7.628;2023-06-14T02:20:08;3.90;;;3.10;;
2998;SDS011;1509;51.964;7.628;2023-06-14T02:22:34;4.90;;;3.50;;
2998;SDS011;1509;51.964;7.628;2023-06-14T02:25:00;4.13;;;3.07;;
2998;SDS011;1509;51.964;7.628;2023-06-14T02:27:25;3.80;;;2.93;;
2998;SDS011;1509;51.964;7.628;2023-06-14T02:29:51;7.33;;;3.70;;
2998;SDS011;1509;51.964;7.628;2023-06-14T02:32:17;4.33;;;3.27;;
2998;SDS011;1509;51.964;7.628;2023-06-14T02:34:42;4.90;;;3.50;;
2998;SDS011;1509;51.964;7.628;2023-06-14T02:37:08;6.17;;;3.60;;
2998;SDS011;1509;51.964;7.628;2023-06-14T02:39:34;7.30;;;3.90;;
2998;SDS011;1509;51.964;7.628;2023-06-14T02:42:00;5.33;;;3.10;;
2998;SDS011;1509;51.964;7.628;2023-06-14T02:44:26;6.87;;;3.60;;
2998;SDS011;1509;51.964;7.628;2023-06-14T02:46:53;8.13;;;3.80;;
2998;SDS011;1509;51.964;7.628;2023-06-14T02:49:19;7.20;;;3.50;;
2998;SDS011;1509;51.964;7.628;2023-06-14T02:51:45;6.20;;;3.53;;
2998;SDS011;1509;51.964;7.628;2023-06-14T02:54:10;5.20;;;3.30;;
2998;SDS011;1509;51.964;7.628;2023-06-14T02:56:36;5.67;;;3.23;;
2998;SDS011;1509;51.964;7.628;2023-06-14T02:59:01;5.87;;;3.60;;
2998;SDS011;1509;51.964;7.628;2023-06-14T03:01:27;4.43;;;3.10;;
2998;SDS011;1509;51.964;7.628;2023-06-14T03:04:00;6.40;;;3.90;;
2998;SDS011;1509;51.964;7.628;2023-06-14T03:06:31;4.40;;;2.90;;
2998;SDS011;1509;51.964;7.628;2023-06-14T03:08:58;6.03;;;3.57;;
2998;SDS011;1509;51.964;7.628;2023-06-14T03:11:29;9.30;;;3.60;;
2998;SDS011;1509;51.964;7.628;2023-06-14T03:13:55;5.70;;;3.10;;
2998;SDS011;1509;51.964;7.628;2023-06-14T03:16:22;7.17;;;3.40;;
2998;SDS011;1509;51.964;7.628;2023-06-14T03:18:51;4.90;;;3.50;;
2998;SDS011;1509;51.964;7.628;2023-06-14T03:21:20;5.27;;;3.37;;
2998;SDS011;1509;51.964;7.628;2023-06-14T03:23:46;4.47;;;3.50;;
2998;SDS011;1509;51.964;7.628;2023-06-14T03:26:13;7.50;;;4.30;;
2998;SDS011;1509;51.964;7.628;2023-06-14T03:28:46;4.33;;;2.90;;
2998;SDS011;1509;51.964;7.628;2023-06-14T03:31:13;5.27;;;3.03;;
2998;SDS011;1509;51.964;7.628;2023-06-14T03:33:39;5.20;;;3.50;;
2998;SDS011;1509;51.964;7.628;2023-06-14T03:36:05;5.33;;;3.17;;
2998;SDS011;1509;51.964;7.628;2023-06-14T03:38:31;4.57;;;3.07;;
2998;SDS011;1509;51.964;7.628;2023-06-14T03:40:57;5.30;;;3.00;;
2998;SDS011;1509;51.964;7.628;2023-06-14T03:43:22;4.53;;;3.40;;
2998;SDS011;1509;51.964;7.628;2023-06-14T03:45:48;4.77;;;3.00;;
2998;SDS011;1509;51.964;7.628;2023-06-14T03:48:14;5.83;;;4.20;;
2998;SDS011;1509;51.964;7.628;2023-06-14T03:50:39;4.60;;;3.30;;
2998;SDS011;1509;51.964;7.628;2023-06-14T03:53:09;4.60;;;3.20;;
2998;SDS011;1509;51.964;7.628;2023-06-14T03:55:35;4.97;;;3.20;;
2998;SDS011;1509;51.964;7.628;2023-06-14T03:58:02;4.07;;;3.23;;
2998;SDS011;1509;51.964;7.628;2023-06-14T04:00:28;4.87;;;3.37;;
2998;SDS011;1509;51.964;7.628;2023-06-14T04:02:54;4.53;;;3.40;;
2998;SDS011;1509;51.964;7.628;2023-06-14T04:05:19;4.70;;;3.13;;
2998;SDS011;1509;51.964;7.628;2023-06-14T04:07:45;4.33;;;3.20;;
2998;SDS011;1509;51.964;7.628;2023-06-14T04:10:13;4.90;;;3.63;;
2998;SDS011;1509;51.964;7.628;2023-06-14T04:12:41;5.80;;;3.73;;
2998;SDS011;1509;51.964;7.628;2023-06-14T04:15:07;3.97;;;3.40;;
2998;SDS011;1509;51.964;7.628;2023-06-14T04:17:33;6.73;;;3.67;;
2998;SDS011;1509;51.964;7.628;2023-06-14T04:19:59;5.23;;;4.00;;
2998;SDS011;1509;51.964;7.628;2023-06-14T04:22:26;5.47;;;3.13;;
2998;SDS011;1509;51.964;7.628;2023-06-14T04:24:55;5.33;;;3.57;;
2998;SDS011;1509;51.964;7.628;2023-06-14T04:27:21;8.57;;;3.77;;
2998;SDS011;1509;51.964;7.628;2023-06-14T04:29:50;5.23;;;3.20;;
2998;SDS011;1509;51.964;7.628;2023-06-14T04:32:21;5.80;;;4.20;;
2998;SDS011;1509;51.964;7.628;2023-06-14T04:34:54;6.17;;;3.47;;
2998;SDS011;1509;51.964;7.628;2023-06-14T04:37:21;4.33;;;3.57;;
2998;SDS011;1509;51.964;7.628;2023-06-14T04:39:47;4.17;;;3.20;;
2998;SDS011;1509;51.964;7.628;2023-06-14T04:42:14;6.27;;;4.30;;
2998;SDS011;1509;51.964;7.628;2023-06-14T04:44:41;6.10;;;3.67;;
2998;SDS011;1509;51.964;7.628;2023-06-14T04:47:08;4.47;;;3.20;;
2998;SDS011;1509;51.964;7.628;2023-06-14T04:49:37;4.40;;;3.37;;
2998;SDS011;1509;51.964;7.628;2023-06-14T04:52:05;5.37;;;3.40;;
2998;SDS011;1509;51.964;7.628;2023-06-14T04:54:31;4.90;;;3.63;;
2998;SDS011;1509;51.964;7.628;2023-06-14T04:56:58;7.30;;;3.77;;
2998;SDS011;1509;51.964;7.628;2023-06-14T04:59:24;6.87;;;3.17;;
2998;SDS011;1509;51.964;7.628;2023-06-14T05:01:50;4.97;;;3.63;;
2998;SDS011;1509;51.964;7.628;2023-06-14T05:04:17;4.67;;;3.30;;
2998;SDS011;1509;51.964;7.628;2023-06-14T05:06:44;4.50;;;3.30;;
2998;SDS011;1509;51.964;7.628;2023-06-14T05:09:13;4.83;;;3.73;;
2998;SDS011;1509;51.964;7.628;2023-06-14T05:11:39;6.03;;;3.30;;
2998;SDS011;1509;51.964;7.628;2023-06-14T05:14:07;4.10;;;3.70;;
2998;SDS011;1509;51.964;7.628;2023-06-14T05:16:33;9.30;;;3.70;;
2998;SDS011;1509;51.964;7.628;2023-06-14T05:18:59;8.83;;;3.43;;
2998;SDS011;1509;51.964;7.628;2023-06-14T05:21:24;5.23;;;2.63;;
2998;SDS011;1509;51.964;7.628;2023-06-14T05:23:50;6.73;;;3.60;;
2998;SDS011;1509;51.964;7.628;2023-06-14T05:26:16;5.73;;;3.67;;
2998;SDS011;1509;51.964;7.628;2023-06-14T05:28:41;6.93;;;3.17;;
2998;SDS011;1509;51.964;7.628;2023-06-14T05:31:07;4.60;;;3.10;;
2998;SDS011;1509;51.964;7.628;2023-06-14T05:33:33;7.00;;;2.97;;
2998;SDS011;1509;51.964;7.628;2023-06-14T05:35:58;4.93;;;3.20;;
2998;SDS011;1509;51.964;7.628;2023-06-14T05:38:24;4.23;;;2.97;;
2998;SDS011;1509;51.964;7.628;2023-06-14T05:40:50;5.80;;;4.47;;
2998;SDS011;1509;51.964;7.628;2023-06-14T05:43:16;6.07;;;2.93;;
2998;SDS011;1509;51.964;7.628;2023-06-14T05:45:41;6.13;;;2.67;;
2998;SDS011;1509;51.964;7.628;2023-06-14T05:48:07;5.80;;;3.30;;
2998;SDS011;1509;51.964;7.628;2023-06-14T05:50:33;4.47;;;2.83;;
2998;SDS011;1509;51.964;7.628;2023-06-14T05:52:58;6.70;;;3.33;;
2998;SDS011;1509;51.964;7.628;2023-06-14T05:55:24;4.43;;;3.10;;
2998;SDS011;1509;51.964;7.628;2023-06-14T05:57:50;4.37;;;3.00;;
2998;SDS011;1509;51.964;7.628;2023-06-14T06:00:16;3.40;;;2.43;;
2998;SDS011;1509;51.964;7.628;2023-06-14T06:02:43;8.30;;;3.50;;
2998;SDS011;1509;51.964;7.628;2023-06-14T06:05:12;3.77;;;2.70;;
2998;SDS011;1509;51.964;7.628;2023-06-14T06:07:38;5.03;;;3.27;;
2998;SDS011;1509;51.964;7.628;2023-06-14T06:10:09;3.30;;;2.70;;
2998;SDS011;1509;51.964;7.628;2023-06-14T06:12:35;7.27;;;2.90;;
2998;SDS011;1509;51.964;7.628;2023-06-14T06:15:00;4.10;;;2.70;;
2998;SDS011;1509;51.964;7.628;2023-06-14T06:17:26;4.57;;;3.13;;
2998;SDS011;1509;51.964;7.628;2023-06-14T06:19:51;6.27;;;2.67;;
2998;SDS011;1509;51.964;7.628;2023-06-14T06:22:17;3.10;;;2.60;;
2998;SDS011;1509;51.964;7.628;2023-06-14T06:24:43;3.93;;;2.50;;
2998;SDS011;1509;51.964;7.628;2023-06-14T06:27:08;4.87;;;2.70;;
2998;SDS011;1509;51.964;7.628;2023-06-14T06:29:34;5.60;;;2.73;;
2998;SDS011;1509;51.964;7.628;2023-06-14T06:32:00;3.57;;;2.90;;
2998;SDS011;1509;51.964;7.628;2023-06-14T06:34:26;2.93;;;2.20;;
2998;SDS011;1509;51.964;7.628;2023-06-14T06:36:52;4.40;;;2.53;;
2998;SDS011;1509;51.964;7.628;2023-06-14T06:39:18;3.80;;;2.70;;
2998;SDS011;1509;51.964;7.628;2023-06-14T06:41:44;3.50;;;2.43;;
2998;SDS011;1509;51.964;7.628;2023-06-14T06:44:09;3.30;;;2.50;;
2998;SDS011;1509;51.964;7.628;2023-06-14T06:46:36;2.67;;;2.27;;
2998;SDS011;1509;51.964;7.628;2023-06-14T06:49:06;5.77;;;2.40;;
2998;SDS011;1509;51.964;7.628;2023-06-14T06:51:32;6.20;;;2.90;;
2998;SDS011;1509;51.964;7.628;2023-06-14T06:53:58;4.87;;;2.77;;
2998;SDS011;1509;51.964;7.628;2023-06-14T06:56:23;3.53;;;2.50;;
2998;SDS011;1509;51.964;7.628;2023-06-14T06:58:52;4.13;;;2.30;;
2998;SDS011;1509;51.964;7.628;2023-06-14T07:01:18;2.87;;;2.10;;
2998;SDS011;1509;51.964;7.628;2023-06-14T07:03:46;5.63;;;2.27;;
2998;SDS011;1509;51.964;7.628;2023-06-14T07:06:12;3.43;;;2.20;;
2998;SDS011;1509;51.964;7.628;2023-06-14T07:08:38;4.17;;;2.07;;
2998;SDS011;1509;51.964;7.628;2023-06-14T07:11:04;3.10;;;1.80;;
2998;SDS011;1509;51.964;7.628;2023-06-14T07:13:31;3.20;;;2.37;;
2998;SDS011;1509;51.964;7.628;2023-06-14T07:15:57;2.87;;;2.13;;
2998;SDS011;1509;51.964;7.628;2023-06-14T07:18:25;5.97;;;2.23;;
2998;SDS011;1509;51.964;7.628;2023-06-14T07:20:51;2.10;;;1.90;;
2998;SDS011;1509;51.964;7.628;2023-06-14T07:23:19;4.40;;;2.20;;
2998;SDS011;1509;51.964;7.628;2023-06-14T07:25:45;5.07;;;2.53;;
2998;SDS011;1509;51.964;7.628;2023-06-14T07:28:10;3.80;;;1.70;;
2998;SDS011;1509;51.964;7.628;2023-06-14T07:30:36;3.13;;;2.17;;
2998;SDS011;1509;51.964;7.628;2023-06-14T07:33:02;4.10;;;2.90;;
2998;SDS011;1509;51.964;7.628;2023-06-14T07:35:27;6.97;;;2.30;;
2998;SDS011;1509;51.964;7.628;2023-06-14T07:37:53;10.37;;;2.10;;
2998;SDS011;1509;51.964;7.628;2023-06-14T07:40:19;3.70;;;1.80;;
2998;SDS011;1509;51.964;7.628;2023-06-14T07:42:44;5.70;;;2.20;;
2998;SDS011;1509;51.964;7.628;2023-06-14T07:45:11;3.37;;;2.13;;
2998;SDS011;1509;51.964;7.628;2023-06-14T07:47:38;4.40;;;2.30;;
2998;SDS011;1509;51.964;7.628;2023-06-14T07:50:04;4.07;;;2.40;;
2998;SDS011;1509;51.964;7.628;2023-06-14T07:52:30;5.20;;;2.00;;
2998;SDS011;1509;51.964;7.628;2023-06-14T07:54:56;2.40;;;1.80;;
2998;SDS011;1509;51.964;7.628;2023-06-14T07:57:21;3.63;;;2.07;;
2998;SDS011;1509;51.964;7.628;2023-06-14T07:59:47;3.27;;;2.33;;
2998;SDS011;1509;51.964;7.628;2023-06-14T08:02:14;3.17;;;2.30;;
2998;SDS011;1509;51.964;7.628;2023-06-14T08:04:40;4.20;;;2.13;;
2998;SDS011;1509;51.964;7.628;2023-06-14T08:07:07;3.57;;;2.17;;
2998;SDS011;1509;51.964;7.628;2023-06-14T08:09:32;5.43;;;2.40;;
2998;SDS011;1509;51.964;7.628;2023-06-14T08:11:58;4.40;;;2.50;;
2998;SDS011;1509;51.964;7.628;2023-06-14T08:14:25;6.10;;;2.53;;
2998;SDS011;1509;51.964;7.628;2023-06-14T08:16:50;4.43;;;2.23;;
2998;SDS011;1509;51.964;7.628;2023-06-14T08:19:16;5.53;;;1.93;;
2998;SDS011;1509;51.964;7.628;2023-06-14T08:21:43;3.37;;;2.40;;
2998;SDS011;1509;51.964;7.628;2023-06-14T08:24:08;5.00;;;1.60;;
2998;SDS011;1509;51.964;7.628;2023-06-14T08:26:37;3.40;;;2.20;;
2998;SDS011;1509;51.964;7.628;2023-06-14T08:29:03;2.83;;;1.87;;
2998;SDS011;1509;51.964;7.628;2023-06-14T08:31:29;2.63;;;2.00;;
2998;SDS011;1509;51.964;7.628;2023-06-14T08:33:56;4.70;;;1.60;;
2998;SDS011;1509;51.964;7.628;2023-06-14T08:36:22;3.20;;;2.00;;
2998;SDS011;1509;51.964;7.628;2023-06-14T08:38:48;4.53;;;1.70;;
2998;SDS011;1509;51.964;7.628;2023-06-14T08:41:13;2.13;;;1.60;;
2998;SDS011;1509;51.964;7.628;2023-06-14T08:43:47;3.77;;;1.90;;
2998;SDS011;1509;51.964;7.628;2023-06-14T08:46:13;2.53;;;1.60;;
2998;SDS011;1509;51.964;7.628;2023-06-14T08:48:45;3.37;;;1.90;;
2998;SDS011;1509;51.964;7.628;2023-06-14T08:51:13;3.17;;;2.03;;
2998;SDS011;1509;51.964;7.628;2023-06-14T08:53:41;3.10;;;1.73;;
2998;SDS011;1509;51.964;7.628;2023-06-14T08:56:08;5.70;;;2.27;;
2998;SDS011;1509;51.964;7.628;2023-06-14T08:58:38;4.63;;;1.90;;
2998;SDS011;1509;51.964;7.628;2023-06-14T09:01:11;2.73;;;1.87;;
2998;SDS011;1509;51.964;7.628;2023-06-14T09:03:41;3.07;;;2.70;;
2998;SDS011;1509;51.964;7.628;2023-06-14T09:06:07;2.30;;;1.43;;
2998;SDS011;1509;51.964;7.628;2023-06-14T09:08:38;3.47;;;1.57;;
2998;SDS011;1509;51.964;7.628;2023-06-14T09:11:07;3.33;;;2.50;;
2998;SDS011;1509;51.964;7.628;2023-06-14T09:13:33;2.20;;;1.70;;
2998;SDS011;1509;51.964;7.628;2023-06-14T09:15:59;4.93;;;1.60;;
2998;SDS011;1509;51.964;7.628;2023-06-14T09:18:35;2.00;;;1.30;;
2998;SDS011;1509;51.964;7.628;2023-06-14T09:21:02;5.87;;;2.23;;
2998;SDS011;1509;51.964;7.628;2023-06-14T09:23:28;5.40;;;2.10;;
2998;SDS011;1509;51.964;7.628;2023-06-14T09:25:53;2.40;;;1.60;;
2998;SDS011;1509;51.964;7.628;2023-06-14T09:28:19;3.40;;;2.17;;
2998;SDS011;1509;51.964;7.628;2023-06-14T09:30:47;3.43;;;2.00;;
2998;SDS011;1509;51.964;7.628;2023-06-14T09:33:16;5.33;;;2.30;;
2998;SDS011;1509;51.964;7.628;2023-06-14T09:35:45;3.37;;;1.60;;
2998;SDS011;1509;51.964;7.628;2023-06-14T09:38:11;2.87;;;1.60;;
2998;SDS011;1509;51.964;7.628;2023-06-14T09:40:37;4.73;;;1.80;;
2998;SDS011;1509;51.964;7.628;2023-06-14T09:43:05;3.03;;;1.30;;
2998;SDS011;1509;51.964;7.628;2023-06-14T09:45:34;2.27;;;1.63;;
2998;SDS011;1509;51.964;7.628;2023-06-14T09:48:00;3.77;;;2.23;;
2998;SDS011;1509;51.964;7.628;2023-06-14T09:50:27;3.03;;;1.27;;
2998;SDS011;1509;51.964;7.628;2023-06-14T09:52:52;2.90;;;1.57;;
2998;SDS011;1509;51.964;7.628;2023-06-14T09:55:23;3.03;;;1.63;;
2998;SDS011;1509;51.964;7.628;2023-06-14T09:57:53;3.27;;;1.73;;
2998;SDS011;1509;51.964;7.628;2023-06-14T10:00:21;10.03;;;1.63;;
2998;SDS011;1509;51.964;7.628;2023-06-14T10:02:51;3.33;;;1.73;;
2998;SDS011;1509;51.964;7.628;2023-06-14T10:05:20;2.50;;;1.53;;
2998;SDS011;1509;51.964;7.628;2023-06-14T10:07:49;2.27;;;1.43;;
2998;SDS011;1509;51.964;7.628;2023-06-14T10:10:18;5.17;;;1.70;;
2998;SDS011;1509;51.964;7.628;2023-06-14T10:12:45;3.63;;;1.73;;
2998;SDS011;1509;51.964;7.628;2023-06-14T10:15:13;2.00;;;1.30;;
2998;SDS011;1509;51.964;7.628;2023-06-14T10:17:47;2.50;;;1.60;;
2998;SDS011;1509;51.964;7.628;2023-06-14T10:20:26;2.10;;;1.50;;
2998;SDS011;1509;51.964;7.628;2023-06-14T10:23:02;3.20;;;1.40;;
2998;SDS011;1509;51.964;7.628;2023-06-14T10:25:33;3.03;;;2.30;;
2998;SDS011;1509;51.964;7.628;2023-06-14T10:28:19;5.87;;;2.00;;
2998;SDS011;1509;51.964;7.628;2023-06-14T10:31:16;2.10;;;1.40;;
2998;SDS011;1509;51.964;7.628;2023-06-14T10:33:49;3.80;;;2.00;;
2998;SDS011;1509;51.964;7.628;2023-06-14T10:36:30;3.43;;;1.50;;
2998;SDS011;1509;51.964;7.628;2023-06-14T10:38:59;2.87;;;2.03;;
2998;SDS011;1509;51.964;7.628;2023-06-14T10:41:31;5.23;;;1.90;;
2998;SDS011;1509;51.964;7.628;2023-06-14T10:46:46;2.00;;;1.37;;
2998;SDS011;1509;51.964;7.628;2023-06-14T10:49:16;1.97;;;1.43;;
2998;SDS011;1509;51.964;7.628;2023-06-14T10:51:45;2.80;;;1.70;;
2998;SDS011;1509;51.964;7.628;2023-06-14T10:54:16;5.30;;;2.17;;
2998;SDS011;1509;51.964;7.628;2023-06-14T10:56:46;3.00;;;1.93;;
2998;SDS011;1509;51.964;7.628;2023-06-14T10:59:12;2.37;;;1.97;;
2998;SDS011;1509;51.964;7.628;2023-06-14T11:01:40;2.30;;;1.73;;
2998;SDS011;1509;51.964;7.628;2023-06-14T11:04:17;2.40;;;1.70;;
2998;SDS011;1509;51.964;7.628;2023-06-14T11:06:46;14.10;;;2.13;;
2998;SDS011;1509;51.964;7.628;2023-06-14T11:12:08;2.50;;;1.60;;
2998;SDS011;1509;51.964;7.628;2023-06-14T11:14:36;4.17;;;2.27;;
2998;SDS011;1509;51.964;7.628;2023-06-14T11:17:03;3.30;;;2.50;;
2998;SDS011;1509;51.964;7.628;2023-06-14T11:19:29;4.83;;;2.07;;
2998;SDS011;1509;51.964;7.628;2023-06-14T11:21:55;2.53;;;1.63;;
2998;SDS011;1509;51.964;7.628;2023-06-14T11:24:20;2.80;;;1.40;;
2998;SDS011;1509;51.964;7.628;2023-06-14T11:26:46;3.30;;;2.50;;
2998;SDS011;1509;51.964;7.628;2023-06-14T11:29:14;4.30;;;1.83;;
2998;SDS011;1509;51.964;7.628;2023-06-14T11:31:43;3.50;;;1.90;;
2998;SDS011;1509;51.964;7.628;2023-06-14T11:34:13;5.70;;;2.10;;
2998;SDS011;1509;51.964;7.628;2023-06-14T11:36:39;3.00;;;2.30;;
2998;SDS011;1509;51.964;7.628;2023-06-14T11:39:05;2.57;;;2.10;;
2998;SDS011;1509;51.964;7.628;2023-06-14T11:41:38;7.50;;;2.00;;
2998;SDS011;1509;51.964;7.628;2023-06-14T11:44:06;3.10;;;1.83;;
2998;SDS011;1509;51.964;7.628;2023-06-14T11:46:32;3.00;;;1.90;;
2998;SDS011;1509;51.964;7.628;2023-06-14T11:48:58;4.33;;;2.47;;
2998;SDS011;1509;51.964;7.628;2023-06-14T11:51:28;5.47;;;2.07;;
2998;SDS011;1509;51.964;7.628;2023-06-14T11:53:54;2.30;;;1.77;;
2998;SDS011;1509;51.964;7.628;2023-06-14T11:56:20;3.53;;;1.97;;
2998;SDS011;1509;51.964;7.628;2023-06-14T11:58:46;3.20;;;1.90;;
2998;SDS011;1509;51.964;7.628;2023-06-14T12:01:17;4.97;;;2.03;;
2998;SDS011;1509;51.964;7.628;2023-06-14T12:03:49;2.73;;;2.10;;
2998;SDS011;1509;51.964;7.628;2023-06-14T12:06:16;3.73;;;1.83;;
2998;SDS011;1509;51.964;7.628;2023-06-14T12:08:50;3.90;;;2.10;;
2998;SDS011;1509;51.964;7.628;2023-06-14T12:11:15;3.63;;;2.03;;
2998;SDS011;1509;51.964;7.628;2023-06-14T12:13:42;4.30;;;2.37;;
2998;SDS011;1509;51.964;7.628;2023-06-14T12:16:09;4.40;;;1.90;;
2998;SDS011;1509;51.964;7.628;2023-06-14T12:18:36;2.87;;;2.10;;
2998;SDS011;1509;51.964;7.628;2023-06-14T12:21:07;2.93;;;2.13;;
2998;SDS011;1509;51.964;7.628;2023-06-14T12:23:38;2.97;;;1.93;;
2998;SDS011;1509;51.964;7.628;2023-06-14T12:26:04;3.00;;;2.00;;
2998;SDS011;1509;51.964;7.628;2023-06-14T12:28:31;7.13;;;3.20;;
2998;SDS011;1509;51.964;7.628;2023-06-14T12:30:56;2.70;;;1.90;;
2998;SDS011;1509;51.964;7.628;2023-06-14T12:33:23;4.20;;;2.40;;
2998;SDS011;1509;51.964;7.628;2023-06-14T12:35:50;2.70;;;2.40;;
2998;SDS011;1509;51.964;7.628;2023-06-14T12:38:20;5.10;;;1.87;;
2998;SDS011;1509;51.964;7.628;2023-06-14T12:40:46;2.20;;;2.00;;
2998;SDS011;1509;51.964;7.628;2023-06-14T12:43:14;5.90;;;2.03;;
2998;SDS011;1509;51.964;7.628;2023-06-14T12:45:40;3.23;;;2.40;;
2998;SDS011;1509;51.964;7.628;2023-06-14T12:48:05;4.10;;;2.10;;
2998;SDS011;1509;51.964;7.628;2023-06-14T12:50:31;5.10;;;3.20;;
2998;SDS011;1509;51.964;7.628;2023-06-14T12:52:57;4.87;;;2.23;;
2998;SDS011;1509;51.964;7.628;2023-06-14T12:55:22;3.40;;;2.07;;
2998;SDS011;1509;51.964;7.628;2023-06-14T12:57:48;2.10;;;1.60;;
2998;SDS011;1509;51.964;7.628;2023-06-14T13:00:14;5.10;;;1.90;;
2998;SDS011;1509;51.964;7.628;2023-06-14T13:02:40;4.40;;;2.40;;
2998;SDS011;1509;51.964;7.628;2023-06-14T13:05:06;4.03;;;2.23;;
2998;SDS011;1509;51.964;7.628;2023-06-14T13:07:32;3.00;;;2.10;;
2998;SDS011;1509;51.964;7.628;2023-06-14T13:09:57;3.60;;;2.00;;
2998;SDS011;1509;51.964;7.628;2023-06-14T13:12:23;3.40;;;2.20;;
2998;SDS011;1509;51.964;7.628;2023-06-14T13:14:49;2.97;;;2.23;;
2998;SDS011;1509;51.964;7.628;2023-06-14T13:17:15;2.90;;;2.13;;
2998;SDS011;1509;51.964;7.628;2023-06-14T13:19:40;3.87;;;2.10;;
2998;SDS011;1509;51.964;7.628;2023-06-14T13:22:07;2.57;;;2.10;;
2998;SDS011;1509;51.964;7.628;2023-06-14T13:24:33;5.80;;;2.40;;
2998;SDS011;1509;51.964;7.628;2023-06-14T13:26:59;4.40;;;2.80;;
2998;SDS011;1509;51.964;7.628;2023-06-14T13:29:25;5.20;;;2.53;;
2998;SDS011;1509;51.964;7.628;2023-06-14T13:31:51;2.90;;;2.40;;
2998;SDS011;1509;51.964;7.628;2023-06-14T13:34:18;2.57;;;2.37;;
2998;SDS011;1509;51.964;7.628;2023-06-14T13:36:43;3.50;;;2.53;;
2998;SDS011;1509;51.964;7.628;2023-06-14T13:39:09;4.80;;;2.57;;
2998;SDS011;1509;51.964;7.628;2023-06-14T13:41:36;3.43;;;2.47;;
2998;SDS011;1509;51.964;7.628;2023-06-14T13:44:01;2.90;;;2.10;;
2998;SDS011;1509;51.964;7.628;2023-06-14T13:46:30;3.47;;;2.53;;
2998;SDS011;1509;51.964;7.628;2023-06-14T13:48:56;3.23;;;2.10;;
2998;SDS011;1509;51.964;7.628;2023-06-14T13:51:26;4.97;;;2.43;;
2998;SDS011;1509;51.964;7.628;2023-06-14T13:53:52;4.07;;;2.43;;
2998;SDS011;1509;51.964;7.628;2023-06-14T13:56:18;2.80;;;2.30;;
2998;SDS011;1509;51.964;7.628;2023-06-14T13:58:44;3.00;;;2.40;;
2998;SDS011;1509;51.964;7.628;2023-06-14T14:01:10;3.07;;;2.47;;
2998;SDS011;1509;51.964;7.628;2023-06-14T14:03:36;2.70;;;2.03;;
2998;SDS011;1509;51.964;7.628;2023-06-14T14:06:03;4.43;;;2.30;;
2998;SDS011;1509;51.964;7.628;2023-06-14T14:08:29;4.00;;;2.77;;
2998;SDS011;1509;51.964;7.628;2023-06-14T14:10:55;3.20;;;2.30;;
2998;SDS011;1509;51.964;7.628;2023-06-14T14:13:21;2.50;;;2.23;;
2998;SDS011;1509;51.964;7.628;2023-06-14T14:15:47;3.20;;;2.30;;
2998;SDS011;1509;51.964;7.628;2023-06-14T14:18:16;2.87;;;2.30;;
2998;SDS011;1509;51.964;7.628;2023-06-14T14:20:42;5.13;;;2.50;;
2998;SDS011;1509;51.964;7.628;2023-06-14T14:23:07;3.23;;;2.60;;
2998;SDS011;1509;51.964;7.628;2023-06-14T14:25:33;6.00;;;2.70;;
2998;SDS011;1509;51.964;7.628;2023-06-14T14:27:58;2.93;;;2.23;;
2998;SDS011;1509;51.964;7.628;2023-06-14T14:30:24;3.57;;;2.83;;
2998;SDS011;1509;51.964;7.628;2023-06-14T14:32:50;3.30;;;2.57;;
2998;SDS011;1509;51.964;7.628;2023-06-14T14:35:17;3.30;;;2.30;;
2998;SDS011;1509;51.964;7.628;2023-06-14T14:37:43;2.70;;;2.40;;
2998;SDS011;1509;51.964;7.628;2023-06-14T14:40:09;4.83;;;2.73;;
2998;SDS011;1509;51.964;7.628;2023-06-14T14:42:35;3.23;;;2.53;;
2998;SDS011;1509;51.964;7.628;2023-06-14T14:45:01;5.13;;;2.33;;
2998;SDS011;1509;51.964;7.628;2023-06-14T14:47:27;2.30;;;1.93;;
2998;SDS011;1509;51.964;7.628;2023-06-14T14:49:53;2.93;;;2.50;;
2998;SDS011;1509;51.964;7.628;2023-06-14T14:52:18;3.40;;;2.60;;
2998;SDS011;1509;51.964;7.628;2023-06-14T14:54:44;3.60;;;2.70;;
2998;SDS011;1509;51.964;7.628;2023-06-14T14:57:09;2.73;;;2.43;;
2998;SDS011;1509;51.964;7.628;2023-06-14T14:59:35;4.83;;;2.50;;
2998;SDS011;1509;51.964;7.628;2023-06-14T15:02:01;5.70;;;2.50;;
2998;SDS011;1509;51.964;7.628;2023-06-14T15:04:27;3.17;;;2.77;;
2998;SDS011;1509;51.964;7.628;2023-06-14T15:06:52;2.77;;;2.10;;
2998;SDS011;1509;51.964;7.628;2023-06-14T15:09:18;5.50;;;2.87;;
2998;SDS011;1509;51.964;7.628;2023-06-14T15:11:43;2.77;;;2.13;;
2998;SDS011;1509;51.964;7.628;2023-06-14T15:14:09;4.40;;;2.37;;
2998;SDS011;1509;51.964;7.628;2023-06-14T15:16:35;3.30;;;2.90;;
2998;SDS011;1509;51.964;7.628;2023-06-14T15:19:01;5.10;;;2.57;;